ELY337 LLBG-EHAM
Flight info
| Callsign | ELY337 |
|---|---|
| Flight time | 4h 21m |
| Altitude | 36000 |
| Route | SUVAS N128 OTHON DCT VAXOS UN128 RDS UL609 LARKI/N0478F380 UL609 MES DCT DISOR DCT LONTA UL608 DOLEV DCT IRDIV DCT PODET DCT SIMBA DCT GASKA DCT MASEK DCT MAPOX DCT BIGGE DCT AMSAN T281 NORKU |
| Aircraft | B772/H-SDE2E3FGHIJ4J5LM1OP2RVWXY/LB1D1 |
Departure
| Time | 2026-05-04 08:02 |
|---|---|
| Airport | Ben Gurion International Airport (LLBG) |
Arrival
| Time | 2026-05-04 12:23 |
|---|---|
| Airport | Amsterdam Airport Schiphol (EHAM) |
| Time | Latitude | Longitude | Altitude | Speed | Heading |
|---|---|---|---|---|---|
| 2026-05-04 07:43 | 32.00167 | 34.87509 | 149 ft | 0 kts | 268° |
| 2026-05-04 07:49 | 32.00167 | 34.87519 | 149 ft | 4 kts | 268° |
| 2026-05-04 07:50 | 32.00168 | 34.87551 | 149 ft | 4 kts | 269° |
| 2026-05-04 07:50 | 32.00167 | 34.87574 | 149 ft | 4 kts | 292° |
| 2026-05-04 07:50 | 32.00157 | 34.87592 | 149 ft | 4 kts | 342° |
| 2026-05-04 07:50 | 32.00136 | 34.87593 | 149 ft | 4 kts | 24° |
| 2026-05-04 07:51 | 32.00114 | 34.87578 | 149 ft | 4 kts | 34° |
| 2026-05-04 07:51 | 32.00099 | 34.87567 | 149 ft | 0 kts | 31° |
| 2026-05-04 07:54 | 32.00114 | 34.87578 | 149 ft | 6 kts | 32° |
| 2026-05-04 07:55 | 32.00171 | 34.87620 | 149 ft | 15 kts | 32° |
| 2026-05-04 07:55 | 32.00282 | 34.87702 | 149 ft | 22 kts | 31° |
| 2026-05-04 07:55 | 32.00407 | 34.87789 | 149 ft | 20 kts | 30° |
| 2026-05-04 07:56 | 32.00522 | 34.87870 | 149 ft | 18 kts | 26° |
| 2026-05-04 07:56 | 32.00624 | 34.87941 | 149 ft | 16 kts | 32° |
| 2026-05-04 07:56 | 32.00711 | 34.88005 | 149 ft | 14 kts | 32° |
| 2026-05-04 07:56 | 32.00801 | 34.88070 | 149 ft | 17 kts | 28° |
| 2026-05-04 07:57 | 32.00907 | 34.88152 | 149 ft | 19 kts | 34° |
| 2026-05-04 07:57 | 32.01034 | 34.88233 | 149 ft | 22 kts | 31° |
| 2026-05-04 07:57 | 32.01169 | 34.88334 | 149 ft | 24 kts | 35° |
| 2026-05-04 07:57 | 32.01305 | 34.88446 | 149 ft | 24 kts | 45° |
| 2026-05-04 07:58 | 32.01415 | 34.88597 | 149 ft | 25 kts | 56° |
| 2026-05-04 07:58 | 32.01488 | 34.88787 | 149 ft | 26 kts | 78° |
| 2026-05-04 07:58 | 32.01506 | 34.88979 | 149 ft | 22 kts | 84° |
| 2026-05-04 07:58 | 32.01520 | 34.89144 | 149 ft | 19 kts | 84° |
| 2026-05-04 07:59 | 32.01532 | 34.89282 | 149 ft | 15 kts | 84° |
| 2026-05-04 07:59 | 32.01562 | 34.89397 | 149 ft | 15 kts | 71° |
| 2026-05-04 07:59 | 32.01592 | 34.89522 | 149 ft | 16 kts | 75° |
| 2026-05-04 07:59 | 32.01624 | 34.89652 | 149 ft | 16 kts | 55° |
| 2026-05-04 08:00 | 32.01715 | 34.89725 | 149 ft | 16 kts | 29° |
| 2026-05-04 08:00 | 32.01793 | 34.89768 | 149 ft | 9 kts | 353° |
| 2026-05-04 08:00 | 32.01835 | 34.89733 | 149 ft | 6 kts | 291° |
| 2026-05-04 08:02 | 32.01042 | 34.84851 | 2253 ft | 158 kts | 255° |
| 2026-05-04 08:02 | 32.00787 | 34.83599 | 2888 ft | 159 kts | 256° |
| 2026-05-04 08:02 | 32.00526 | 34.82324 | 3468 ft | 162 kts | 256° |
| 2026-05-04 08:03 | 32.00251 | 34.80982 | 3888 ft | 177 kts | 257° |
| 2026-05-04 08:03 | 31.99943 | 34.79484 | 4212 ft | 200 kts | 257° |
| 2026-05-04 08:03 | 31.99593 | 34.77779 | 4519 ft | 226 kts | 257° |
| 2026-05-04 08:03 | 31.99363 | 34.75885 | 5003 ft | 243 kts | 269° |
| 2026-05-04 08:04 | 31.99575 | 34.73857 | 5669 ft | 254 kts | 280° |
| 2026-05-04 08:04 | 32.00023 | 34.71848 | 6624 ft | 254 kts | 285° |
| 2026-05-04 08:04 | 32.00618 | 34.69907 | 7483 ft | 257 kts | 288° |
| 2026-05-04 08:04 | 32.01285 | 34.67906 | 7938 ft | 260 kts | 288° |
| 2026-05-04 08:05 | 32.01921 | 34.65927 | 8584 ft | 263 kts | 287° |
| 2026-05-04 08:05 | 32.02560 | 34.63913 | 9550 ft | 261 kts | 286° |
| 2026-05-04 08:05 | 32.03122 | 34.61901 | 10436 ft | 260 kts | 283° |
| 2026-05-04 08:05 | 32.03627 | 34.59791 | 11041 ft | 273 kts | 281° |
| 2026-05-04 08:06 | 32.04111 | 34.57572 | 11666 ft | 287 kts | 279° |
| 2026-05-04 08:06 | 32.04598 | 34.55241 | 12284 ft | 302 kts | 279° |
| 2026-05-04 08:06 | 32.05124 | 34.52747 | 12941 ft | 318 kts | 279° |
| 2026-05-04 08:06 | 32.05678 | 34.50167 | 13686 ft | 329 kts | 280° |
| 2026-05-04 08:08 | 32.09902 | 34.31165 | 19999 ft | 355 kts | 279° |
| 2026-05-04 08:08 | 32.10325 | 34.29294 | 20547 ft | 357 kts | 279° |
| 2026-05-04 08:10 | 32.15475 | 34.05827 | 26423 ft | 382 kts | 278° |
| 2026-05-04 08:11 | 32.16214 | 34.02830 | 27027 ft | 389 kts | 282° |
| 2026-05-04 08:11 | 32.18715 | 33.96970 | 28301 ft | 407 kts | 292° |
| 2026-05-04 08:11 | 32.20218 | 33.94107 | 28860 ft | 413 kts | 293° |
| 2026-05-04 08:12 | 32.21816 | 33.91262 | 29458 ft | 418 kts | 294° |
| 2026-05-04 08:12 | 32.23478 | 33.88425 | 30066 ft | 420 kts | 295° |
| 2026-05-04 08:12 | 32.25167 | 33.85589 | 30588 ft | 423 kts | 295° |
| 2026-05-04 08:12 | 32.26864 | 33.82751 | 31191 ft | 423 kts | 295° |
| 2026-05-04 08:13 | 32.28560 | 33.79916 | 31877 ft | 420 kts | 295° |
| 2026-05-04 08:13 | 32.30239 | 33.77107 | 32576 ft | 417 kts | 294° |
| 2026-05-04 08:13 | 32.31909 | 33.74310 | 33157 ft | 416 kts | 294° |
| 2026-05-04 08:13 | 32.33559 | 33.71549 | 33606 ft | 416 kts | 294° |
| 2026-05-04 08:14 | 32.35228 | 33.68752 | 34137 ft | 415 kts | 294° |
| 2026-05-04 08:14 | 32.36897 | 33.65957 | 34564 ft | 416 kts | 294° |
| 2026-05-04 08:14 | 32.38583 | 33.63168 | 34971 ft | 417 kts | 294° |
| 2026-05-04 08:16 | 32.50363 | 33.43507 | 36030 ft | 418 kts | 295° |
| 2026-05-04 08:16 | 32.53716 | 33.37873 | 36029 ft | 418 kts | 295° |
| 2026-05-04 08:17 | 32.57041 | 33.32276 | 36027 ft | 418 kts | 295° |
| 2026-05-04 08:17 | 32.60393 | 33.26625 | 36025 ft | 419 kts | 295° |
| 2026-05-04 08:19 | 32.73797 | 33.03939 | 36016 ft | 420 kts | 295° |
| 2026-05-04 08:20 | 32.77149 | 32.98246 | 36013 ft | 420 kts | 295° |
| 2026-05-04 08:20 | 32.80469 | 32.92594 | 35981 ft | 420 kts | 295° |
| 2026-05-04 08:21 | 32.83813 | 32.86897 | 35969 ft | 419 kts | 295° |
| 2026-05-04 08:21 | 32.87154 | 32.81197 | 35964 ft | 420 kts | 295° |
| 2026-05-04 08:22 | 32.90494 | 32.75488 | 35959 ft | 420 kts | 295° |
| 2026-05-04 08:24 | 33.03806 | 32.52647 | 35943 ft | 419 kts | 295° |
| 2026-05-04 08:24 | 33.07126 | 32.46928 | 35939 ft | 420 kts | 295° |
| 2026-05-04 08:25 | 33.10451 | 32.41193 | 35963 ft | 420 kts | 295° |
| 2026-05-04 08:25 | 33.13775 | 32.35449 | 35961 ft | 421 kts | 295° |
| 2026-05-04 08:27 | 33.27052 | 32.12421 | 35949 ft | 421 kts | 295° |
| 2026-05-04 08:28 | 33.30393 | 32.06646 | 35947 ft | 422 kts | 296° |
| 2026-05-04 08:28 | 33.33727 | 32.00843 | 35944 ft | 423 kts | 295° |
| 2026-05-04 08:29 | 33.37026 | 31.95063 | 35941 ft | 422 kts | 296° |
| 2026-05-04 08:31 | 33.50262 | 31.71811 | 35932 ft | 423 kts | 296° |
| 2026-05-04 08:33 | 33.63435 | 31.48517 | 35925 ft | 422 kts | 296° |
| 2026-05-04 08:35 | 33.76607 | 31.25229 | 35922 ft | 421 kts | 296° |
| 2026-05-04 08:35 | 33.79911 | 31.19394 | 35921 ft | 422 kts | 296° |
| 2026-05-04 08:37 | 33.91332 | 30.98934 | 35920 ft | 420 kts | 296° |
| 2026-05-04 08:38 | 33.94593 | 30.93077 | 35920 ft | 421 kts | 296° |
| 2026-05-04 08:38 | 33.97851 | 30.87208 | 35921 ft | 421 kts | 296° |
| 2026-05-04 08:40 | 34.10979 | 30.63414 | 35936 ft | 428 kts | 297° |
| 2026-05-04 08:41 | 34.14269 | 30.57430 | 35937 ft | 427 kts | 297° |
| 2026-05-04 08:41 | 34.17589 | 30.51458 | 35938 ft | 428 kts | 297° |
| 2026-05-04 08:42 | 34.20887 | 30.45483 | 35939 ft | 427 kts | 297° |
| 2026-05-04 08:42 | 34.24166 | 30.39512 | 35940 ft | 426 kts | 297° |
| 2026-05-04 08:43 | 34.27441 | 30.33532 | 35941 ft | 426 kts | 297° |
| 2026-05-04 08:43 | 34.30707 | 30.27612 | 35942 ft | 426 kts | 297° |
| 2026-05-04 08:44 | 34.33971 | 30.21634 | 35942 ft | 426 kts | 297° |
| 2026-05-04 08:46 | 34.47285 | 29.97852 | 35947 ft | 430 kts | 304° |
| 2026-05-04 08:46 | 34.51435 | 29.92585 | 35945 ft | 434 kts | 308° |
| 2026-05-04 08:47 | 34.55741 | 29.87485 | 35975 ft | 436 kts | 308° |
| 2026-05-04 08:47 | 34.60027 | 29.82267 | 35973 ft | 436 kts | 308° |
| 2026-05-04 08:48 | 34.64296 | 29.76991 | 35928 ft | 437 kts | 308° |
| 2026-05-04 08:48 | 34.68553 | 29.71706 | 35919 ft | 437 kts | 308° |
| 2026-05-04 08:49 | 34.72821 | 29.66441 | 35919 ft | 438 kts | 308° |
| 2026-05-04 08:50 | 34.87759 | 29.47884 | 35916 ft | 441 kts | 309° |
| 2026-05-04 08:51 | 34.92029 | 29.42529 | 35916 ft | 441 kts | 309° |
| 2026-05-04 08:51 | 34.96305 | 29.37162 | 35917 ft | 441 kts | 309° |
| 2026-05-04 08:52 | 35.00738 | 29.31963 | 35917 ft | 444 kts | 314° |
| 2026-05-04 08:52 | 35.05649 | 29.27315 | 35918 ft | 448 kts | 318° |
| 2026-05-04 08:54 | 35.24917 | 29.09941 | 35918 ft | 450 kts | 318° |
| 2026-05-04 08:55 | 35.30763 | 29.04603 | 35919 ft | 450 kts | 318° |
| 2026-05-04 08:55 | 35.34936 | 29.00785 | 35919 ft | 450 kts | 318° |
| 2026-05-04 09:01 | 35.87538 | 28.52006 | 35982 ft | 452 kts | 319° |
| 2026-05-04 09:01 | 35.92514 | 28.47333 | 35982 ft | 453 kts | 319° |
| 2026-05-04 09:02 | 35.97527 | 28.42620 | 35983 ft | 453 kts | 319° |
| 2026-05-04 09:02 | 36.02535 | 28.37908 | 35984 ft | 453 kts | 320° |
| 2026-05-04 09:03 | 36.07562 | 28.33181 | 35985 ft | 454 kts | 320° |
| 2026-05-04 09:03 | 36.12604 | 28.28467 | 35987 ft | 454 kts | 320° |
| 2026-05-04 09:04 | 36.17645 | 28.23713 | 35988 ft | 454 kts | 320° |
| 2026-05-04 09:04 | 36.22627 | 28.18995 | 35990 ft | 454 kts | 320° |
| 2026-05-04 09:05 | 36.27673 | 28.14208 | 35991 ft | 454 kts | 320° |
| 2026-05-04 09:05 | 36.32653 | 28.09482 | 35993 ft | 454 kts | 320° |
| 2026-05-04 09:06 | 36.37500 | 28.04483 | 35994 ft | 453 kts | 315° |
| 2026-05-04 09:08 | 36.55759 | 27.82987 | 35996 ft | 452 kts | 315° |
| 2026-05-04 09:08 | 36.60317 | 27.77680 | 35999 ft | 448 kts | 315° |
| 2026-05-04 09:09 | 36.64876 | 27.72417 | 36001 ft | 443 kts | 316° |
| 2026-05-04 09:09 | 36.69390 | 27.67174 | 36006 ft | 443 kts | 316° |
| 2026-05-04 09:10 | 36.73859 | 27.61961 | 36033 ft | 443 kts | 316° |
| 2026-05-04 09:10 | 36.78370 | 27.56686 | 36039 ft | 444 kts | 316° |
| 2026-05-04 09:11 | 36.82879 | 27.51405 | 36043 ft | 444 kts | 316° |
| 2026-05-04 09:11 | 36.87383 | 27.46117 | 36046 ft | 445 kts | 316° |
| 2026-05-04 09:12 | 36.91902 | 27.40805 | 36047 ft | 445 kts | 316° |
| 2026-05-04 09:14 | 37.09908 | 27.19543 | 36050 ft | 446 kts | 316° |
| 2026-05-04 09:14 | 37.14417 | 27.14197 | 36050 ft | 446 kts | 316° |
| 2026-05-04 09:15 | 37.18940 | 27.08855 | 36050 ft | 446 kts | 316° |
| 2026-05-04 09:15 | 37.23422 | 27.03533 | 36056 ft | 446 kts | 316° |
| 2026-05-04 09:17 | 37.43784 | 26.79434 | 36061 ft | 447 kts | 319° |
| 2026-05-04 09:18 | 37.48582 | 26.74443 | 36061 ft | 448 kts | 320° |
| 2026-05-04 09:18 | 37.53329 | 26.69368 | 36061 ft | 448 kts | 319° |
| 2026-05-04 09:19 | 37.58032 | 26.64271 | 36062 ft | 448 kts | 319° |
| 2026-05-04 09:19 | 37.62767 | 26.59130 | 36064 ft | 448 kts | 319° |
| 2026-05-04 09:20 | 37.67497 | 26.53994 | 36068 ft | 449 kts | 319° |
| 2026-05-04 09:20 | 37.72235 | 26.48848 | 36073 ft | 449 kts | 319° |
| 2026-05-04 09:21 | 37.76970 | 26.43671 | 36079 ft | 450 kts | 319° |
| 2026-05-04 09:21 | 37.81665 | 26.38520 | 36085 ft | 449 kts | 319° |
| 2026-05-04 09:22 | 37.86396 | 26.33328 | 36094 ft | 450 kts | 319° |
| 2026-05-04 09:22 | 37.91144 | 26.28150 | 36102 ft | 451 kts | 319° |
| 2026-05-04 09:23 | 37.95887 | 26.22950 | 36109 ft | 451 kts | 319° |
| 2026-05-04 09:23 | 37.99829 | 26.18610 | 36116 ft | 451 kts | 319° |
| 2026-05-04 09:25 | 38.19607 | 25.96805 | 36139 ft | 451 kts | 319° |
| 2026-05-04 09:26 | 38.24337 | 25.91561 | 36139 ft | 451 kts | 319° |
| 2026-05-04 09:26 | 38.29124 | 25.86479 | 36139 ft | 451 kts | 322° |
| 2026-05-04 09:27 | 38.34099 | 25.81604 | 36144 ft | 451 kts | 322° |
| 2026-05-04 09:27 | 38.39073 | 25.76709 | 36139 ft | 451 kts | 322° |
| 2026-05-04 09:28 | 38.44014 | 25.71787 | 36139 ft | 451 kts | 322° |
| 2026-05-04 09:28 | 38.48963 | 25.66828 | 36138 ft | 451 kts | 322° |
| 2026-05-04 09:29 | 38.53896 | 25.61886 | 36137 ft | 451 kts | 322° |
| 2026-05-04 09:29 | 38.58847 | 25.56959 | 36133 ft | 451 kts | 322° |
| 2026-05-04 09:30 | 38.63755 | 25.52042 | 36136 ft | 451 kts | 322° |
| 2026-05-04 09:30 | 38.68709 | 25.47057 | 36135 ft | 452 kts | 322° |
| 2026-05-04 09:31 | 38.73641 | 25.42080 | 36134 ft | 452 kts | 322° |
| 2026-05-04 09:31 | 38.78546 | 25.37120 | 36134 ft | 451 kts | 322° |
| 2026-05-04 09:32 | 38.83486 | 25.32115 | 36137 ft | 451 kts | 322° |
| 2026-05-04 09:34 | 39.03146 | 25.12103 | 36154 ft | 452 kts | 322° |
| 2026-05-04 09:34 | 39.08070 | 25.07068 | 36156 ft | 452 kts | 322° |
| 2026-05-04 09:35 | 39.12987 | 25.02031 | 36155 ft | 452 kts | 322° |
| 2026-05-04 09:35 | 39.17910 | 24.96978 | 36155 ft | 452 kts | 322° |
| 2026-05-04 09:37 | 39.37532 | 24.76744 | 36148 ft | 452 kts | 322° |
| 2026-05-04 09:38 | 39.42444 | 24.71657 | 36147 ft | 452 kts | 322° |
| 2026-05-04 09:38 | 39.47341 | 24.66575 | 36149 ft | 452 kts | 322° |
| 2026-05-04 09:39 | 39.52225 | 24.61497 | 36149 ft | 452 kts | 322° |
| 2026-05-04 09:39 | 39.57124 | 24.56394 | 36155 ft | 452 kts | 322° |
| 2026-05-04 09:40 | 39.62021 | 24.51284 | 36155 ft | 452 kts | 322° |
| 2026-05-04 09:40 | 39.66920 | 24.46161 | 36157 ft | 452 kts | 322° |
| 2026-05-04 09:42 | 39.86488 | 24.25605 | 36161 ft | 453 kts | 322° |
| 2026-05-04 09:43 | 39.91381 | 24.20440 | 36163 ft | 453 kts | 322° |
| 2026-05-04 09:43 | 39.96277 | 24.15263 | 36161 ft | 453 kts | 322° |
| 2026-05-04 09:44 | 40.00344 | 24.10955 | 36162 ft | 453 kts | 322° |
| 2026-05-04 09:46 | 40.19880 | 23.90164 | 36168 ft | 453 kts | 322° |
| 2026-05-04 09:46 | 40.24760 | 23.84946 | 36170 ft | 453 kts | 322° |
| 2026-05-04 09:47 | 40.29642 | 23.79715 | 36171 ft | 453 kts | 322° |
| 2026-05-04 09:49 | 40.49050 | 23.58820 | 36182 ft | 451 kts | 322° |
| 2026-05-04 09:51 | 40.65944 | 23.40502 | 36191 ft | 449 kts | 322° |
| 2026-05-04 09:51 | 40.70773 | 23.35243 | 36192 ft | 449 kts | 322° |
| 2026-05-04 09:52 | 40.75585 | 23.29991 | 36194 ft | 449 kts | 322° |
| 2026-05-04 09:52 | 40.80392 | 23.24736 | 36194 ft | 448 kts | 322° |
| 2026-05-04 09:53 | 40.85184 | 23.19485 | 36194 ft | 448 kts | 322° |
| 2026-05-04 09:53 | 40.89946 | 23.14259 | 36193 ft | 447 kts | 322° |
| 2026-05-04 09:54 | 40.94728 | 23.09000 | 36192 ft | 447 kts | 322° |
| 2026-05-04 09:54 | 40.99508 | 23.03733 | 36192 ft | 446 kts | 322° |
| 2026-05-04 09:55 | 41.04303 | 22.98483 | 36192 ft | 446 kts | 322° |
| 2026-05-04 09:55 | 41.09066 | 22.93211 | 36197 ft | 445 kts | 322° |
| 2026-05-04 09:56 | 41.13788 | 22.87961 | 36198 ft | 445 kts | 322° |
| 2026-05-04 09:56 | 41.18526 | 22.82684 | 36198 ft | 444 kts | 322° |
| 2026-05-04 09:57 | 41.23267 | 22.77402 | 36198 ft | 444 kts | 322° |
| 2026-05-04 09:57 | 41.27752 | 22.71736 | 36197 ft | 445 kts | 316° |
| 2026-05-04 09:58 | 41.31897 | 22.65578 | 36197 ft | 447 kts | 314° |
| 2026-05-04 09:58 | 41.35988 | 22.59356 | 36194 ft | 446 kts | 315° |
| 2026-05-04 10:00 | 41.52548 | 22.34862 | 36182 ft | 444 kts | 316° |
| 2026-05-04 10:02 | 41.67066 | 22.13357 | 36714 ft | 449 kts | 315° |
| 2026-05-04 10:04 | 41.81609 | 21.91619 | 38166 ft | 448 kts | 315° |
| 2026-05-04 10:04 | 41.85750 | 21.85386 | 38170 ft | 447 kts | 315° |
| 2026-05-04 10:05 | 41.89870 | 21.79180 | 38172 ft | 449 kts | 315° |
| 2026-05-04 10:05 | 41.94026 | 21.72919 | 38173 ft | 447 kts | 314° |
| 2026-05-04 10:06 | 41.98180 | 21.66701 | 38171 ft | 447 kts | 315° |
| 2026-05-04 10:06 | 42.02312 | 21.60441 | 38171 ft | 447 kts | 314° |
| 2026-05-04 10:08 | 42.16713 | 21.38449 | 38183 ft | 447 kts | 314° |
| 2026-05-04 10:08 | 42.20746 | 21.32059 | 38182 ft | 447 kts | 313° |
| 2026-05-04 10:09 | 42.24760 | 21.25650 | 38186 ft | 446 kts | 313° |
| 2026-05-04 10:09 | 42.28769 | 21.19246 | 38190 ft | 446 kts | 313° |
| 2026-05-04 10:10 | 42.32747 | 21.12881 | 38193 ft | 445 kts | 313° |
| 2026-05-04 10:10 | 42.36740 | 21.06482 | 38196 ft | 445 kts | 313° |
| 2026-05-04 10:11 | 42.40749 | 21.00115 | 38198 ft | 444 kts | 313° |
| 2026-05-04 10:11 | 42.44752 | 20.93751 | 38199 ft | 443 kts | 313° |
| 2026-05-04 10:12 | 42.48727 | 20.87382 | 38199 ft | 442 kts | 313° |
| 2026-05-04 10:12 | 42.52694 | 20.81001 | 38199 ft | 442 kts | 313° |
| 2026-05-04 10:13 | 42.56634 | 20.74646 | 38199 ft | 442 kts | 313° |
| 2026-05-04 10:13 | 42.60592 | 20.68248 | 38199 ft | 441 kts | 313° |
| 2026-05-04 10:14 | 42.64553 | 20.61869 | 38200 ft | 441 kts | 313° |
| 2026-05-04 10:16 | 42.80249 | 20.36270 | 38195 ft | 441 kts | 312° |
| 2026-05-04 10:16 | 42.84202 | 20.29862 | 38194 ft | 440 kts | 314° |
| 2026-05-04 10:17 | 42.88470 | 20.23856 | 38193 ft | 440 kts | 318° |
| 2026-05-04 10:19 | 43.05842 | 20.00370 | 38189 ft | 441 kts | 317° |
| 2026-05-04 10:19 | 43.10180 | 19.94448 | 38188 ft | 439 kts | 317° |
| 2026-05-04 10:20 | 43.14507 | 19.88558 | 38188 ft | 438 kts | 317° |
| 2026-05-04 10:20 | 43.18818 | 19.82640 | 38188 ft | 439 kts | 317° |
| 2026-05-04 10:21 | 43.23124 | 19.76702 | 38187 ft | 439 kts | 317° |
| 2026-05-04 10:21 | 43.27399 | 19.70791 | 38187 ft | 440 kts | 317° |
| 2026-05-04 10:22 | 43.33864 | 19.61821 | 38186 ft | 440 kts | 316° |
| 2026-05-04 10:23 | 43.38167 | 19.55834 | 38186 ft | 440 kts | 316° |
| 2026-05-04 10:25 | 43.55322 | 19.31832 | 38183 ft | 440 kts | 316° |
| 2026-05-04 10:25 | 43.59610 | 19.25802 | 38181 ft | 440 kts | 316° |
| 2026-05-04 10:26 | 43.63891 | 19.19767 | 38182 ft | 440 kts | 316° |
| 2026-05-04 10:26 | 43.68165 | 19.13728 | 38180 ft | 439 kts | 316° |
| 2026-05-04 10:27 | 43.72441 | 19.07674 | 38176 ft | 439 kts | 316° |
| 2026-05-04 10:27 | 43.76675 | 19.01666 | 38175 ft | 439 kts | 316° |
| 2026-05-04 10:28 | 43.80938 | 18.95605 | 38174 ft | 439 kts | 316° |
| 2026-05-04 10:28 | 43.85196 | 18.89538 | 38165 ft | 439 kts | 315° |
| 2026-05-04 10:29 | 43.89446 | 18.83467 | 38164 ft | 439 kts | 315° |
| 2026-05-04 10:29 | 43.93670 | 18.77421 | 38162 ft | 438 kts | 315° |
| 2026-05-04 10:30 | 43.97908 | 18.71342 | 38161 ft | 438 kts | 315° |
| 2026-05-04 10:30 | 44.02148 | 18.65247 | 38162 ft | 439 kts | 315° |
| 2026-05-04 10:31 | 44.06399 | 18.59123 | 38161 ft | 440 kts | 315° |
| 2026-05-04 10:32 | 44.20508 | 18.38695 | 38157 ft | 439 kts | 315° |
| 2026-05-04 10:33 | 44.24745 | 18.32534 | 38154 ft | 439 kts | 315° |
| 2026-05-04 10:33 | 44.28970 | 18.26375 | 38153 ft | 439 kts | 315° |
| 2026-05-04 10:34 | 44.33192 | 18.20207 | 38153 ft | 439 kts | 314° |
| 2026-05-04 10:34 | 44.37385 | 18.14067 | 38153 ft | 439 kts | 314° |
| 2026-05-04 10:35 | 44.41606 | 18.07871 | 38152 ft | 439 kts | 314° |
| 2026-05-04 10:35 | 44.45821 | 18.01672 | 38151 ft | 439 kts | 314° |
| 2026-05-04 10:36 | 44.50029 | 17.95469 | 38155 ft | 439 kts | 314° |
| 2026-05-04 10:36 | 44.54233 | 17.89259 | 38153 ft | 439 kts | 314° |
| 2026-05-04 10:37 | 44.58432 | 17.83040 | 38152 ft | 439 kts | 314° |
| 2026-05-04 10:37 | 44.62606 | 17.76845 | 38151 ft | 440 kts | 314° |
| 2026-05-04 10:39 | 44.77296 | 17.54933 | 38143 ft | 440 kts | 314° |
| 2026-05-04 10:40 | 44.81492 | 17.48641 | 38142 ft | 441 kts | 314° |
| 2026-05-04 10:40 | 44.85707 | 17.42342 | 38142 ft | 441 kts | 314° |
| 2026-05-04 10:41 | 44.89888 | 17.36084 | 38142 ft | 441 kts | 313° |
| 2026-05-04 10:41 | 44.94066 | 17.29757 | 38141 ft | 441 kts | 313° |
| 2026-05-04 10:42 | 44.98255 | 17.23393 | 38141 ft | 442 kts | 313° |
| 2026-05-04 10:42 | 45.02436 | 17.17032 | 38141 ft | 442 kts | 313° |
| 2026-05-04 10:43 | 45.06627 | 17.10669 | 38141 ft | 442 kts | 314° |
| 2026-05-04 10:45 | 45.24673 | 16.87028 | 38135 ft | 443 kts | 317° |
| 2026-05-04 10:45 | 45.29186 | 16.81070 | 38133 ft | 443 kts | 317° |
| 2026-05-04 10:46 | 45.33718 | 16.75119 | 38130 ft | 444 kts | 317° |
| 2026-05-04 10:46 | 45.38264 | 16.69169 | 38127 ft | 444 kts | 317° |
| 2026-05-04 10:47 | 45.42801 | 16.63179 | 38125 ft | 445 kts | 317° |
| 2026-05-04 10:47 | 45.47308 | 16.57200 | 38120 ft | 445 kts | 316° |
| 2026-05-04 10:49 | 45.65423 | 16.33003 | 38115 ft | 446 kts | 316° |
| 2026-05-04 10:50 | 45.69924 | 16.26955 | 38113 ft | 447 kts | 316° |
| 2026-05-04 10:52 | 45.88026 | 16.02486 | 38113 ft | 448 kts | 316° |
| 2026-05-04 10:52 | 45.92552 | 15.96333 | 38109 ft | 448 kts | 316° |
| 2026-05-04 10:54 | 46.10595 | 15.71674 | 38099 ft | 448 kts | 316° |
| 2026-05-04 10:56 | 46.29304 | 15.47850 | 38072 ft | 449 kts | 319° |
| 2026-05-04 10:57 | 46.34081 | 15.42083 | 38069 ft | 449 kts | 319° |
| 2026-05-04 10:57 | 46.38868 | 15.36260 | 38068 ft | 450 kts | 319° |
| 2026-05-04 10:58 | 46.43656 | 15.30411 | 38069 ft | 450 kts | 319° |
| 2026-05-04 10:58 | 46.48476 | 15.24604 | 38069 ft | 451 kts | 319° |
| 2026-05-04 10:59 | 46.53268 | 15.18781 | 38072 ft | 451 kts | 319° |
| 2026-05-04 10:59 | 46.58078 | 15.12899 | 38075 ft | 452 kts | 319° |
| 2026-05-04 11:00 | 46.62893 | 15.06988 | 38078 ft | 451 kts | 318° |
| 2026-05-04 11:02 | 46.82035 | 14.83322 | 38079 ft | 452 kts | 318° |
| 2026-05-04 11:05 | 47.17904 | 14.38345 | 38081 ft | 453 kts | 317° |
| 2026-05-04 11:06 | 47.22675 | 14.32299 | 38077 ft | 453 kts | 317° |
| 2026-05-04 11:06 | 47.27443 | 14.26243 | 38074 ft | 452 kts | 317° |
| 2026-05-04 11:10 | 47.60704 | 13.83574 | 38023 ft | 454 kts | 316° |
| 2026-05-04 11:12 | 47.79698 | 13.58870 | 38010 ft | 453 kts | 316° |
| 2026-05-04 11:12 | 47.84400 | 13.52717 | 38003 ft | 453 kts | 316° |
| 2026-05-04 11:13 | 47.89144 | 13.46492 | 38001 ft | 454 kts | 316° |
| 2026-05-04 11:13 | 47.93884 | 13.40256 | 38000 ft | 454 kts | 316° |
| 2026-05-04 11:16 | 48.17527 | 13.08926 | 38004 ft | 456 kts | 315° |
| 2026-05-04 11:16 | 48.22257 | 13.02599 | 38003 ft | 456 kts | 315° |
| 2026-05-04 11:17 | 48.27076 | 12.96396 | 38008 ft | 457 kts | 318° |
| 2026-05-04 11:19 | 48.45989 | 12.73318 | 38016 ft | 458 kts | 317° |
| 2026-05-04 11:19 | 48.50921 | 12.67227 | 38018 ft | 458 kts | 318° |
| 2026-05-04 11:20 | 48.55880 | 12.61173 | 38020 ft | 458 kts | 318° |
| 2026-05-04 11:20 | 48.60814 | 12.55090 | 38021 ft | 458 kts | 317° |
| 2026-05-04 11:22 | 48.80488 | 12.30550 | 38027 ft | 459 kts | 317° |
| 2026-05-04 11:23 | 48.85409 | 12.24367 | 38029 ft | 459 kts | 317° |
| 2026-05-04 11:25 | 49.02619 | 12.02613 | 38034 ft | 460 kts | 317° |
| 2026-05-04 11:25 | 49.07510 | 11.96394 | 38036 ft | 460 kts | 316° |
| 2026-05-04 11:27 | 49.29662 | 11.68017 | 38041 ft | 462 kts | 316° |
| 2026-05-04 11:28 | 49.34583 | 11.61666 | 38043 ft | 462 kts | 316° |
| 2026-05-04 11:28 | 49.39504 | 11.55299 | 38026 ft | 463 kts | 316° |
| 2026-05-04 11:29 | 49.44401 | 11.48944 | 38025 ft | 462 kts | 316° |
| 2026-05-04 11:29 | 49.49319 | 11.42546 | 38021 ft | 462 kts | 316° |
| 2026-05-04 11:33 | 49.83591 | 10.97464 | 38009 ft | 463 kts | 315° |
| 2026-05-04 11:33 | 49.88451 | 10.91001 | 38011 ft | 463 kts | 315° |
| 2026-05-04 11:34 | 49.93344 | 10.84476 | 38011 ft | 463 kts | 315° |
| 2026-05-04 11:34 | 49.98232 | 10.77938 | 37998 ft | 463 kts | 315° |
| 2026-05-04 11:35 | 50.03107 | 10.71400 | 37996 ft | 463 kts | 315° |
| 2026-05-04 11:35 | 50.07989 | 10.64835 | 37996 ft | 463 kts | 315° |
| 2026-05-04 11:36 | 50.12880 | 10.58281 | 37996 ft | 464 kts | 315° |
| 2026-05-04 11:36 | 50.17767 | 10.51708 | 37996 ft | 463 kts | 314° |
| 2026-05-04 11:37 | 50.22599 | 10.45132 | 38008 ft | 463 kts | 314° |
| 2026-05-04 11:37 | 50.27459 | 10.38494 | 38008 ft | 464 kts | 314° |
| 2026-05-04 11:38 | 50.32302 | 10.31869 | 38002 ft | 464 kts | 314° |
| 2026-05-04 11:38 | 50.37019 | 10.25008 | 38001 ft | 461 kts | 309° |
| 2026-05-04 11:39 | 50.41253 | 10.17445 | 38001 ft | 459 kts | 305° |
| 2026-05-04 11:41 | 50.55819 | 9.90948 | 38005 ft | 459 kts | 307° |
| 2026-05-04 11:41 | 50.60014 | 9.83374 | 37997 ft | 459 kts | 306° |
| 2026-05-04 11:42 | 50.64178 | 9.75772 | 37997 ft | 458 kts | 306° |
| 2026-05-04 11:42 | 50.68336 | 9.68161 | 37996 ft | 458 kts | 306° |
| 2026-05-04 11:43 | 50.72490 | 9.60556 | 37996 ft | 457 kts | 306° |
| 2026-05-04 11:43 | 50.76570 | 9.52853 | 37996 ft | 457 kts | 304° |
| 2026-05-04 11:44 | 50.80589 | 9.45075 | 37995 ft | 457 kts | 304° |
| 2026-05-04 11:44 | 50.84589 | 9.37342 | 37995 ft | 456 kts | 304° |
| 2026-05-04 11:45 | 50.88615 | 9.29549 | 37994 ft | 456 kts | 304° |
| 2026-05-04 11:45 | 50.92635 | 9.21751 | 37995 ft | 456 kts | 304° |
| 2026-05-04 11:46 | 50.96697 | 9.14085 | 37994 ft | 457 kts | 305° |
| 2026-05-04 11:46 | 51.00757 | 9.06235 | 37995 ft | 456 kts | 304° |
| 2026-05-04 11:47 | 51.04732 | 8.98444 | 37996 ft | 456 kts | 304° |
| 2026-05-04 11:47 | 51.08728 | 8.90591 | 37997 ft | 456 kts | 304° |
| 2026-05-04 11:48 | 51.12717 | 8.82750 | 37997 ft | 456 kts | 304° |
| 2026-05-04 11:48 | 51.16737 | 8.74901 | 37997 ft | 456 kts | 304° |
| 2026-05-04 11:49 | 51.20692 | 8.67094 | 37998 ft | 456 kts | 304° |
| 2026-05-04 11:49 | 51.24655 | 8.59191 | 37998 ft | 456 kts | 303° |
| 2026-05-04 11:50 | 51.28620 | 8.51264 | 37998 ft | 456 kts | 303° |
| 2026-05-04 11:50 | 51.32589 | 8.43373 | 37995 ft | 456 kts | 305° |
| 2026-05-04 11:51 | 51.36958 | 8.36007 | 37998 ft | 458 kts | 310° |
| 2026-05-04 11:51 | 51.41580 | 8.28976 | 37993 ft | 457 kts | 311° |
| 2026-05-04 11:51 | 51.43870 | 8.25455 | 37785 ft | 452 kts | 310° |
| 2026-05-04 11:52 | 51.46115 | 8.21957 | 37319 ft | 448 kts | 310° |
| 2026-05-04 11:52 | 51.48326 | 8.18480 | 36889 ft | 444 kts | 310° |
| 2026-05-04 11:52 | 51.50494 | 8.15055 | 36471 ft | 441 kts | 310° |
| 2026-05-04 11:52 | 51.52666 | 8.11612 | 36064 ft | 437 kts | 310° |
| 2026-05-04 11:53 | 51.54822 | 8.08186 | 35656 ft | 434 kts | 310° |
| 2026-05-04 11:53 | 51.56963 | 8.04775 | 35253 ft | 431 kts | 310° |
| 2026-05-04 11:53 | 51.59104 | 8.01424 | 34864 ft | 428 kts | 310° |
| 2026-05-04 11:53 | 51.61237 | 7.98090 | 34475 ft | 425 kts | 310° |
| 2026-05-04 11:55 | 51.75495 | 7.75381 | 31896 ft | 401 kts | 308° |
| 2026-05-04 11:55 | 51.77466 | 7.72215 | 31533 ft | 397 kts | 308° |
| 2026-05-04 11:56 | 51.79419 | 7.69074 | 31171 ft | 394 kts | 308° |
| 2026-05-04 11:56 | 51.81360 | 7.65946 | 30810 ft | 391 kts | 308° |
| 2026-05-04 11:56 | 51.83277 | 7.62854 | 30453 ft | 388 kts | 308° |
| 2026-05-04 11:56 | 51.85183 | 7.59776 | 30095 ft | 386 kts | 308° |
| 2026-05-04 11:57 | 51.87052 | 7.56754 | 29725 ft | 383 kts | 307° |
| 2026-05-04 11:57 | 51.88927 | 7.53717 | 29336 ft | 381 kts | 307° |
| 2026-05-04 11:57 | 51.90798 | 7.50684 | 28940 ft | 379 kts | 307° |
| 2026-05-04 11:57 | 51.92658 | 7.47678 | 28548 ft | 377 kts | 308° |
| 2026-05-04 11:58 | 51.94524 | 7.44700 | 28154 ft | 374 kts | 308° |
| 2026-05-04 11:58 | 51.96365 | 7.41734 | 27760 ft | 372 kts | 308° |
| 2026-05-04 11:58 | 51.98188 | 7.38769 | 27370 ft | 370 kts | 308° |
| 2026-05-04 11:58 | 51.99996 | 7.35812 | 26988 ft | 368 kts | 308° |
| 2026-05-04 11:59 | 52.01787 | 7.32873 | 26649 ft | 364 kts | 307° |
| 2026-05-04 11:59 | 52.03566 | 7.29949 | 26281 ft | 362 kts | 307° |
| 2026-05-04 11:59 | 52.05307 | 7.27086 | 25914 ft | 360 kts | 307° |
| 2026-05-04 11:59 | 52.07061 | 7.24196 | 25544 ft | 357 kts | 308° |
| 2026-05-04 12:00 | 52.08809 | 7.21314 | 25175 ft | 355 kts | 308° |
| 2026-05-04 12:00 | 52.10538 | 7.18463 | 24805 ft | 353 kts | 308° |
| 2026-05-04 12:00 | 52.12263 | 7.15620 | 24439 ft | 351 kts | 308° |
| 2026-05-04 12:00 | 52.13972 | 7.12802 | 24082 ft | 349 kts | 308° |
| 2026-05-04 12:01 | 52.15641 | 7.09949 | 23727 ft | 345 kts | 305° |
| 2026-05-04 12:01 | 52.17141 | 7.06996 | 23373 ft | 341 kts | 302° |
| 2026-05-04 12:02 | 52.25835 | 6.89165 | 21262 ft | 330 kts | 303° |
| 2026-05-04 12:03 | 52.27279 | 6.86269 | 20909 ft | 328 kts | 303° |
| 2026-05-04 12:03 | 52.28710 | 6.83390 | 20558 ft | 326 kts | 303° |
| 2026-05-04 12:03 | 52.30136 | 6.80516 | 20213 ft | 324 kts | 303° |
| 2026-05-04 12:03 | 52.31556 | 6.77656 | 19858 ft | 323 kts | 303° |
| 2026-05-04 12:04 | 52.32967 | 6.74809 | 19511 ft | 321 kts | 303° |
| 2026-05-04 12:04 | 52.34362 | 6.72014 | 19159 ft | 320 kts | 304° |
| 2026-05-04 12:04 | 52.35792 | 6.69168 | 18802 ft | 319 kts | 304° |
| 2026-05-04 12:04 | 52.37190 | 6.66362 | 18450 ft | 318 kts | 304° |
| 2026-05-04 12:05 | 52.38575 | 6.63564 | 18104 ft | 316 kts | 304° |
| 2026-05-04 12:05 | 52.39490 | 6.61708 | 17865 ft | 316 kts | 304° |
| 2026-05-04 12:05 | 52.41315 | 6.58004 | 17402 ft | 314 kts | 304° |
| 2026-05-04 12:05 | 52.42683 | 6.55222 | 17051 ft | 313 kts | 304° |
| 2026-05-04 12:06 | 52.44046 | 6.52452 | 16710 ft | 311 kts | 304° |
| 2026-05-04 12:06 | 52.45383 | 6.49669 | 16361 ft | 307 kts | 300° |
| 2026-05-04 12:06 | 52.46328 | 6.46607 | 16036 ft | 299 kts | 285° |
| 2026-05-04 12:06 | 52.46844 | 6.43322 | 15682 ft | 296 kts | 278° |
| 2026-05-04 12:07 | 52.47198 | 6.40008 | 15330 ft | 294 kts | 276° |
| 2026-05-04 12:07 | 52.47445 | 6.36677 | 14980 ft | 293 kts | 273° |
| 2026-05-04 12:07 | 52.47566 | 6.34480 | 14754 ft | 292 kts | 272° |
| 2026-05-04 12:07 | 52.47764 | 6.30042 | 14300 ft | 291 kts | 272° |
| 2026-05-04 12:08 | 52.47909 | 6.26778 | 13964 ft | 290 kts | 272° |
| 2026-05-04 12:08 | 52.48059 | 6.23492 | 13630 ft | 289 kts | 272° |
| 2026-05-04 12:08 | 52.48161 | 6.21263 | 13395 ft | 289 kts | 272° |
| 2026-05-04 12:08 | 52.48365 | 6.16907 | 12946 ft | 288 kts | 272° |
| 2026-05-04 12:09 | 52.48467 | 6.14736 | 12726 ft | 288 kts | 273° |
| 2026-05-04 12:09 | 52.48621 | 6.11458 | 12391 ft | 288 kts | 273° |
| 2026-05-04 12:09 | 52.48774 | 6.08192 | 12069 ft | 286 kts | 273° |
| 2026-05-04 12:09 | 52.48927 | 6.04941 | 11747 ft | 285 kts | 273° |
| 2026-05-04 12:10 | 52.49079 | 6.01695 | 11422 ft | 284 kts | 273° |
| 2026-05-04 12:10 | 52.49249 | 5.98466 | 11100 ft | 283 kts | 274° |
| 2026-05-04 12:10 | 52.49417 | 5.95295 | 10779 ft | 282 kts | 274° |
| 2026-05-04 12:10 | 52.49578 | 5.92037 | 10450 ft | 282 kts | 273° |
| 2026-05-04 12:11 | 52.49726 | 5.88881 | 10171 ft | 279 kts | 273° |
| 2026-05-04 12:11 | 52.49867 | 5.85761 | 10089 ft | 270 kts | 273° |
| 2026-05-04 12:11 | 52.50001 | 5.82742 | 10009 ft | 260 kts | 273° |
| 2026-05-04 12:11 | 52.50130 | 5.79805 | 9806 ft | 258 kts | 273° |
| 2026-05-04 12:12 | 52.50260 | 5.76812 | 9513 ft | 268 kts | 273° |
| 2026-05-04 12:12 | 52.50395 | 5.73694 | 9215 ft | 278 kts | 273° |
| 2026-05-04 12:12 | 52.50533 | 5.70516 | 8905 ft | 279 kts | 273° |
| 2026-05-04 12:12 | 52.50670 | 5.67338 | 8602 ft | 278 kts | 273° |
| 2026-05-04 12:13 | 52.50807 | 5.64167 | 8296 ft | 277 kts | 273° |
| 2026-05-04 12:14 | 52.46660 | 5.44065 | 6186 ft | 269 kts | 240° |
| 2026-05-04 12:15 | 52.45734 | 5.41458 | 5852 ft | 255 kts | 240° |
| 2026-05-04 12:15 | 52.44871 | 5.39039 | 5405 ft | 245 kts | 239° |
| 2026-05-04 12:15 | 52.44011 | 5.36632 | 4891 ft | 237 kts | 239° |
| 2026-05-04 12:15 | 52.43188 | 5.34334 | 4470 ft | 239 kts | 239° |
| 2026-05-04 12:16 | 52.42353 | 5.32005 | 4299 ft | 234 kts | 239° |
| 2026-05-04 12:16 | 52.41534 | 5.29721 | 4114 ft | 231 kts | 239° |
| 2026-05-04 12:16 | 52.40724 | 5.27464 | 3879 ft | 229 kts | 239° |
| 2026-05-04 12:16 | 52.39914 | 5.25208 | 3682 ft | 227 kts | 240° |
| 2026-05-04 12:17 | 52.39114 | 5.22985 | 3678 ft | 227 kts | 240° |
| 2026-05-04 12:17 | 52.38313 | 5.20752 | 3678 ft | 231 kts | 240° |
| 2026-05-04 12:17 | 52.37488 | 5.18456 | 3466 ft | 232 kts | 240° |
| 2026-05-04 12:17 | 52.36673 | 5.16190 | 3182 ft | 234 kts | 240° |
| 2026-05-04 12:18 | 52.35846 | 5.13894 | 2925 ft | 234 kts | 240° |
| 2026-05-04 12:18 | 52.35020 | 5.11599 | 2686 ft | 233 kts | 239° |
| 2026-05-04 12:18 | 52.34200 | 5.09322 | 2436 ft | 232 kts | 239° |
| 2026-05-04 12:18 | 52.33395 | 5.07029 | 2214 ft | 231 kts | 242° |
| 2026-05-04 12:19 | 52.32735 | 5.04657 | 2059 ft | 224 kts | 251° |
| 2026-05-04 12:19 | 52.32468 | 5.02226 | 2019 ft | 212 kts | 266° |
| 2026-05-04 12:19 | 52.32456 | 4.99929 | 2026 ft | 198 kts | 269° |
| 2026-05-04 12:19 | 52.32436 | 4.97758 | 1981 ft | 182 kts | 268° |
| 2026-05-04 12:20 | 52.32384 | 4.95827 | 1975 ft | 164 kts | 268° |
| 2026-05-04 12:20 | 52.32324 | 4.93978 | 1774 ft | 159 kts | 268° |
| 2026-05-04 12:20 | 52.32265 | 4.92238 | 1543 ft | 148 kts | 268° |
| 2026-05-04 12:20 | 52.32208 | 4.90572 | 1362 ft | 144 kts | 268° |
| 2026-05-04 12:21 | 52.32152 | 4.88932 | 1148 ft | 144 kts | 268° |
| 2026-05-04 12:21 | 52.32097 | 4.87326 | 960 ft | 143 kts | 268° |
| 2026-05-04 12:21 | 52.32043 | 4.85731 | 770 ft | 139 kts | 268° |
| 2026-05-04 12:21 | 52.31989 | 4.84156 | 579 ft | 139 kts | 268° |
| 2026-05-04 12:22 | 52.31935 | 4.82580 | 400 ft | 138 kts | 266° |
| 2026-05-04 12:22 | 52.31881 | 4.81013 | 224 ft | 138 kts | 266° |
| 2026-05-04 12:22 | 52.31827 | 4.79442 | 43 ft | 137 kts | 266° |
| 2026-05-04 12:22 | 52.31780 | 4.78045 | 19 ft | 104 kts | 267° |
| 2026-05-04 12:23 | 52.31750 | 4.77173 | 19 ft | 51 kts | 267° |
| 2026-05-04 12:23 | 52.31736 | 4.76791 | 19 ft | 27 kts | 268° |
| 2026-05-04 12:23 | 52.31726 | 4.76516 | 19 ft | 22 kts | 265° |
| 2026-05-04 12:23 | 52.31704 | 4.76287 | 19 ft | 22 kts | 259° |
| 2026-05-04 12:24 | 52.31645 | 4.76097 | 19 ft | 15 kts | 238° |
| 2026-05-04 12:24 | 52.31594 | 4.75958 | 19 ft | 14 kts | 239° |
| 2026-05-04 12:24 | 52.31545 | 4.75834 | 19 ft | 12 kts | 233° |
| 2026-05-04 12:24 | 52.31482 | 4.75791 | 19 ft | 9 kts | 169° |
| 2026-05-04 12:25 | 52.31448 | 4.75845 | 19 ft | 6 kts | 107° |
| 2026-05-04 12:25 | 52.31422 | 4.75905 | 19 ft | 8 kts | 148° |
| 2026-05-04 12:25 | 52.31360 | 4.75929 | 19 ft | 10 kts | 173° |
| 2026-05-04 12:25 | 52.31311 | 4.75931 | 19 ft | 6 kts | 204° |
| 2026-05-04 12:26 | 52.31296 | 4.75906 | 19 ft | 4 kts | 252° |
| 2026-05-04 12:26 | 52.31299 | 4.75867 | 19 ft | 2 kts | 272° |
| 2026-05-04 12:26 | 52.31299 | 4.75846 | 19 ft | 2 kts | 270° |
| 2026-05-04 12:26 | 52.31298 | 4.75825 | 19 ft | 2 kts | 268° |
| 2026-05-04 12:27 | 52.31298 | 4.75811 | 19 ft | 0 kts | 269° |
| 2026-05-04 12:27 | 52.31298 | 4.75805 | 19 ft | 1 kts | 269° |
| 2026-05-04 12:27 | 52.31298 | 4.75799 | 19 ft | 0 kts | 268° |
| 2026-05-04 12:27 | 52.31298 | 4.75798 | 19 ft | 0 kts | 268° |